Beautrophy — PBNR — position and weather

sailwx.info

Track history (hours):
 
Tides and Currents Weather Stations Pressure Air Temp Water Temp Dewpoint Dewpoint Depression Visibility Wind Speed Wind Dir Waves Ship Positions

Beautrophy

Last reported at 2018-Apr-24 01:37 UTC. Time now 2018-Apr-24 03:07 UTC.
Position N 50°21' W 004°38'.

Length 118 m; draft 4.8 m.

Type: Cargo ship. MMSI: 245916000.

Date/timePositionNaut miles runAvg speedWind from/ knotsBaromVisibWave heightAir tempDewpointWater temp
2018-Apr-24 01:37N 50°21' W 004°38'0 0.0
2018-Apr-24 01:25N 50°21' W 004°38'0 0.0
2018-Apr-24 00:55N 50°21' W 004°38'0 0.0
2018-Apr-24 00:25N 50°21' W 004°38'0 0.0
2018-Apr-23 23:49N 50°21' W 004°38'0 0.0
2018-Apr-23 22:43N 50°21' W 004°38'0 0.0
2018-Apr-23 22:28N 50°21' W 004°38'0 0.0
2018-Apr-23 21:37N 50°21' W 004°38'0 0.0
2018-Apr-23 21:25N 50°21' W 004°38'0 0.0
2018-Apr-23 20:55N 50°21' W 004°38'0 0.0
2018-Apr-23 05:58N 50°21' W 004°38'0 0.0
2018-Apr-23 05:07N 50°21' W 004°38'0 0.0
2018-Apr-23 04:49N 50°21' W 004°38'0 0.0
2018-Apr-23 01:31N 50°21' W 004°38'0 0.0
2018-Apr-22 08:37N 50°21' W 004°38'0 0.0
2018-Apr-22 08:07N 50°21' W 004°38'0 0.0
2018-Apr-22 07:58N 50°21' W 004°38'0 0.0
2018-Apr-22 05:46N 50°21' W 004°38'0 0.0
2018-Apr-22 05:13N 50°21' W 004°38'0 0.0
2018-Apr-22 04:55N 50°21' W 004°38'0 0.0
2018-Apr-22 03:37N 50°21' W 004°38'0 0.0
2018-Apr-22 03:19N 50°21' W 004°38'0 0.0
2018-Apr-22 02:49N 50°21' W 004°38'0 0.0
2018-Apr-22 02:19N 50°21' W 004°38'0 0.0
2018-Apr-22 01:58N 50°21' W 004°38'0 0.0
2018-Apr-22 01:28N 50°21' W 004°38'0 0.0
2018-Apr-21 22:49N 50°21' W 004°38'0 0.0
2018-Apr-21 22:22N 50°21' W 004°38'0 0.0
2018-Apr-21 21:55N 50°21' W 004°38'0 0.0
2018-Apr-21 21:28N 50°21' W 004°38'0 0.0
2018-Apr-21 20:46N 50°21' W 004°38'0 0.0
2018-Apr-21 20:22N 50°21' W 004°38'1 0.0
2018-Apr-21 08:21N 50°20' W 004°38'2 3.7
2018-Apr-21 07:56N 50°19' W 004°39'2 4.1
2018-Apr-21 07:30N 50°17' W 004°37'3 6.3
2018-Apr-21 07:00N 50°17' W 004°32'3 6.8
2018-Apr-21 06:30N 50°16' W 004°27'4 7.0
2018-Apr-21 06:00N 50°15' W 004°22'4 7.3
2018-Apr-21 05:30N 50°14' W 004°17'4 7.4
2018-Apr-21 05:00N 50°13' W 004°11'4 7.4
2018-Apr-21 04:30N 50°12' W 004°06'4 7.1
2018-Apr-21 04:00N 50°11' W 004°00'4 7.3
2018-Apr-21 03:30N 50°09' W 003°55'4 7.6
2018-Apr-21 03:00N 50°08' W 003°50'4 7.7
2018-Apr-21 02:30N 50°07' W 003°44'4 7.3
2018-Apr-21 02:00N 50°06' W 003°38'4 7.8
2018-Apr-21 01:30N 50°05' W 003°32'4 8.1
2018-Apr-21 01:00N 50°05' W 003°26'4 7.9
2018-Apr-21 00:30N 50°04' W 003°20'4 7.7
2018-Apr-21 00:00N 50°03' W 003°14'4 8.2
2018-Apr-20 23:30N 50°02' W 003°08'510.0
2018-Apr-20 23:00N 50°01' W 003°00'5 9.5
2018-Apr-20 22:30N 50°01' W 002°53'4 8.8
2018-Apr-20 22:00N 50°02' W 002°46'5 9.7
2018-Apr-20 21:30N 50°04' W 002°39'5 9.9
2018-Apr-20 21:00N 50°05' W 002°31'510.4
2018-Apr-20 20:30N 50°06' W 002°23'510.9
2018-Apr-20 20:00N 50°07' W 002°15'611.4
2018-Apr-20 19:30N 50°09' W 002°07'612.7
2018-Apr-20 19:00N 50°11' W 001°58'713.6
2018-Apr-20 18:30N 50°13' W 001°47'714.2
2018-Apr-20 18:00N 50°15' W 001°37'714.5
2018-Apr-20 17:31N 50°17' W 001°26'714.8
2018-Apr-20 17:00N 50°18' W 001°14'815.1
2018-Apr-20 16:31N 50°20' W 001°03'715.0
2018-Apr-20 16:00N 50°22' W 000°52'713.5
2018-Apr-20 15:30N 50°24' W 000°41'612.8
2018-Apr-20 15:00N 50°26' W 000°32'612.3
2018-Apr-20 14:30N 50°28' W 000°22'611.6
2018-Apr-20 14:00N 50°29' W 000°14'511.0
2018-Apr-20 13:30N 50°31' W 000°05'510.3
2018-Apr-20 13:00N 50°32' E 000°03'5 9.8
2018-Apr-20 12:30N 50°33' E 000°10'5 9.4
2018-Apr-20 12:01N 50°34' E 000°17'5 9.2
2018-Apr-20 11:30N 50°35' E 000°24'4 8.2
2018-Apr-20 11:00N 50°36' E 000°30'4 8.0
2018-Apr-20 10:30N 50°38' E 000°36'4 8.9
2018-Apr-20 10:00N 50°41' E 000°42'5 9.7
2018-Apr-20 09:30N 50°44' E 000°48'510.5
2018-Apr-20 09:00N 50°47' E 000°54'510.9
2018-Apr-20 08:30N 50°50' E 001°01'611.0
2018-Apr-20 08:00N 50°54' E 001°08'510.9
2018-Apr-20 07:30N 50°57' E 001°14'611.4
2018-Apr-20 07:00N 51°01' E 001°21'611.0
2018-Apr-20 06:30N 51°04' E 001°28'510.8
2018-Apr-20 06:00N 51°08' E 001°34'510.4
2018-Apr-20 05:30N 51°11' E 001°41'510.0
2018-Apr-20 05:00N 51°15' E 001°46'510.0
2018-Apr-20 04:30N 51°20' E 001°50'5 9.8
2018-Apr-20 04:00N 51°24' E 001°54'5 9.9
2018-Apr-20 03:31N 51°28' E 001°58'510.3
2018-Apr-20 03:00N 51°31' E 002°04'510.5
2018-Apr-20 02:30N 51°35' E 002°10'510.6
2018-Apr-20 02:01N 51°39' E 002°16'510.8
2018-Apr-20 01:31N 51°43' E 002°22'510.8
2018-Apr-20 01:00N 51°47' E 002°28'510.8
2018-Apr-20 00:30N 51°50' E 002°35'511.0
2018-Apr-20 00:00N 51°54' E 002°41'610.8
2018-Apr-19 23:29N 51°59' E 002°47'2212.7
2018-Apr-19 21:45N 52°04' E 003°22'312.8
2018-Apr-19 21:29N 52°04' E 003°27'612.6
2018-Apr-19 21:00N 52°04' E 003°37'612.5
2018-Apr-19 20:30N 52°03' E 003°47'510.6
2018-Apr-19 20:00N 52°02' E 003°55'612.9
2018-Apr-19 19:30N 51°59' E 004°05'612.8
2018-Apr-19 19:00N 51°55' E 004°14'510.8
2018-Apr-19 18:30N 51°54' E 004°22'3 5.8
2018-Apr-19 18:00N 51°54' E 004°27'0 0.0
2018-Apr-19 17:30N 51°54' E 004°27'0 0.0
2018-Apr-19 17:00N 51°54' E 004°27'0 0.0
2018-Apr-19 16:30N 51°54' E 004°27'0 0.0
2018-Apr-19 16:00N 51°54' E 004°27'0 0.0
2018-Apr-19 15:30N 51°53' E 004°27'0 0.0
2018-Apr-19 15:00N 51°54' E 004°27'0 0.0
2018-Apr-19 14:30N 51°54' E 004°27'0 0.0
2018-Apr-19 14:00N 51°54' E 004°27'0 0.0
2018-Apr-19 13:30N 51°54' E 004°27'0 0.0
2018-Apr-19 13:00N 51°54' E 004°27'0 0.0
2018-Apr-19 12:30N 51°54' E 004°27'0 0.0
2018-Apr-19 12:00N 51°54' E 004°27'0 0.0
2018-Apr-19 11:30N 51°54' E 004°27'0 0.0
2018-Apr-19 11:00N 51°54' E 004°27'0 0.0
2018-Apr-19 10:30N 51°54' E 004°27'0 0.0
2018-Apr-19 10:00N 51°54' E 004°27'0 0.0
2018-Apr-19 09:30N 51°54' E 004°27'0 0.0
2018-Apr-19 09:00N 51°53' E 004°27'0 0.0
2018-Apr-19 08:30N 51°54' E 004°27'0 0.0
2018-Apr-19 08:00N 51°54' E 004°27'0 0.0
2018-Apr-19 07:30N 51°54' E 004°27'0 0.0
2018-Apr-19 07:00N 51°54' E 004°27'0 0.0
2018-Apr-19 06:30N 51°54' E 004°27'0 0.0
2018-Apr-19 06:00N 51°54' E 004°27'0 0.0
2018-Apr-19 05:30N 51°54' E 004°27'0 0.0
2018-Apr-19 05:00N 51°54' E 004°27'0 0.0
2018-Apr-19 04:30N 51°54' E 004°27'0 0.0
2018-Apr-19 04:00N 51°54' E 004°27'0 0.0
2018-Apr-19 03:30N 51°54' E 004°27'0 0.0
2018-Apr-19 03:00N 51°54' E 004°27'0 0.0
2018-Apr-19 02:30N 51°54' E 004°27'0 0.0
2018-Apr-19 02:00N 51°54' E 004°27'0 0.0
2018-Apr-19 01:30N 51°54' E 004°27'0 0.0
2018-Apr-19 01:00N 51°54' E 004°27'0 0.0
2018-Apr-19 00:30N 51°54' E 004°27'0 0.0
2018-Apr-19 00:00N 51°54' E 004°27'0 0.0
2018-Apr-18 23:30N 51°54' E 004°27'0 0.0
2018-Apr-18 23:00N 51°54' E 004°27'0 0.0
2018-Apr-18 22:30N 51°54' E 004°27'0 0.0
2018-Apr-18 22:00N 51°54' E 004°27'0 0.0
2018-Apr-18 21:30N 51°54' E 004°27'0 0.0
2018-Apr-18 21:00N 51°54' E 004°27'0 0.0
2018-Apr-18 20:30N 51°54' E 004°27'0 0.0
2018-Apr-18 20:00N 51°54' E 004°27'0 0.0
2018-Apr-18 19:30N 51°54' E 004°27'0 0.0
2018-Apr-18 19:00N 51°54' E 004°27'0 0.0
2018-Apr-18 18:30N 51°54' E 004°27'0 0.0
2018-Apr-18 18:00N 51°54' E 004°27'0 0.0
2018-Apr-18 17:30N 51°54' E 004°27'0 0.0
2018-Apr-18 17:00N 51°54' E 004°27'0 0.0
2018-Apr-18 16:30N 51°54' E 004°27'0 0.0
2018-Apr-18 16:00N 51°54' E 004°27'0 0.0
2018-Apr-18 15:30N 51°53' E 004°27'0 0.0
2018-Apr-18 14:57N 51°54' E 004°27'0 0.0
2018-Apr-18 14:30N 51°54' E 004°27'0 0.0
2018-Apr-18 14:00N 51°54' E 004°27'0 0.0
2018-Apr-18 13:30N 51°54' E 004°27'0 0.0
2018-Apr-18 13:00N 51°54' E 004°27'0 0.0
2018-Apr-18 12:30N 51°54' E 004°27'0 0.0
2018-Apr-18 12:00N 51°54' E 004°27'0 0.0
2018-Apr-18 11:30N 51°54' E 004°27'0 0.0
2018-Apr-18 11:00N 51°54' E 004°27'0 0.0
2018-Apr-18 10:30N 51°54' E 004°27'0 0.0
2018-Apr-18 10:00N 51°54' E 004°27'0 0.0
2018-Apr-18 09:30N 51°54' E 004°27'0 0.0
2018-Apr-18 09:00N 51°54' E 004°27'0 0.0
2018-Apr-18 08:30N 51°54' E 004°27'0 0.0
2018-Apr-18 08:00N 51°54' E 004°27'0 0.0
2018-Apr-18 07:30N 51°54' E 004°27'0 0.0
2018-Apr-18 07:00N 51°54' E 004°27'0 0.0
2018-Apr-18 06:30N 51°54' E 004°27'0 0.0
2018-Apr-18 06:00N 51°54' E 004°27'0 0.1
2018-Apr-18 05:30N 51°54' E 004°27'0 0.0
2018-Apr-18 05:00N 51°53' E 004°27'0 0.0
2018-Apr-18 04:30N 51°54' E 004°27'0 0.0
2018-Apr-18 04:00N 51°54' E 004°27'0 0.0
2018-Apr-18 03:30N 51°54' E 004°27'0 0.0
2018-Apr-18 03:00N 51°54' E 004°27'0 0.0
2018-Apr-18 02:30N 51°54' E 004°27'0 0.0
2018-Apr-18 02:00N 51°54' E 004°27'0 0.0
2018-Apr-18 01:30N 51°54' E 004°27'0 0.0
2018-Apr-18 01:00N 51°54' E 004°27'0 0.0
2018-Apr-18 00:30N 51°54' E 004°27'0 0.0
2018-Apr-18 00:00N 51°54' E 004°27'0 0.0
2018-Apr-17 23:30N 51°54' E 004°27'0 0.0
2018-Apr-17 23:00N 51°54' E 004°27'0 0.0
2018-Apr-17 22:30N 51°54' E 004°27'0 0.0
2018-Apr-17 22:00N 51°54' E 004°27'0 0.0
2018-Apr-17 21:30N 51°54' E 004°27'0 0.0
2018-Apr-17 21:00N 51°54' E 004°27'0 0.0
2018-Apr-17 20:30N 51°54' E 004°27'0 0.0
2018-Apr-17 20:00N 51°54' E 004°27'0 0.0
2018-Apr-17 19:30N 51°54' E 004°27'0 0.0
2018-Apr-17 19:00N 51°54' E 004°27'0 0.0
2018-Apr-17 18:30N 51°54' E 004°27'0 0.0
2018-Apr-17 18:00N 51°54' E 004°27'0 0.0
2018-Apr-17 17:30N 51°54' E 004°27'0 0.0
2018-Apr-17 17:00N 51°54' E 004°27'0 0.0
2018-Apr-17 16:30N 51°54' E 004°27'0 0.0
2018-Apr-17 16:00N 51°54' E 004°27'0 0.0
2018-Apr-17 15:30N 51°54' E 004°27'0 0.0
2018-Apr-17 15:00N 51°54' E 004°27'0 0.0
2018-Apr-17 14:30N 51°54' E 004°27'0 0.0
2018-Apr-17 14:00N 51°54' E 004°27'0 0.0
2018-Apr-17 13:30N 51°54' E 004°27'0 0.0
2018-Apr-17 13:00N 51°54' E 004°27'0 0.0
2018-Apr-17 12:30N 51°54' E 004°27'0 0.0
2018-Apr-17 12:00N 51°54' E 004°27'0 0.0
2018-Apr-17 11:30N 51°54' E 004°27'0 0.0
2018-Apr-17 11:00N 51°54' E 004°27'0 0.0
2018-Apr-17 10:30N 51°54' E 004°27'0 0.0
2018-Apr-17 09:57N 51°54' E 004°27'0 0.0
2018-Apr-17 09:30N 51°54' E 004°27'0 0.0
2018-Apr-17 09:00N 51°54' E 004°27'0 0.0
2018-Apr-17 08:30N 51°54' E 004°27'0 0.0
2018-Apr-17 08:00N 51°54' E 004°27'0 0.0
2018-Apr-17 07:30N 51°54' E 004°27'0 0.0
2018-Apr-17 07:00N 51°54' E 004°27'0 0.0
2018-Apr-17 06:30N 51°54' E 004°27'0 0.0
2018-Apr-17 06:00N 51°54' E 004°27'0 0.0
2018-Apr-17 05:30N 51°54' E 004°27'0 0.0
2018-Apr-17 05:00N 51°54' E 004°27'0 0.0
2018-Apr-17 04:30N 51°54' E 004°27'0 0.0
2018-Apr-17 04:00N 51°54' E 004°27'0 0.0
2018-Apr-17 03:30N 51°54' E 004°27'0 0.0
2018-Apr-17 03:00N 51°54' E 004°27'0 0.0
2018-Apr-17 02:30N 51°54' E 004°27'0 0.0
2018-Apr-17 02:00N 51°54' E 004°27'0 0.0
2018-Apr-17 01:30N 51°54' E 004°27'0 0.2
2018-Apr-17 01:01N 51°54' E 004°27'2 4.7
2018-Apr-17 00:31N 51°54' E 004°23'5 9.1
2018-Apr-17 00:00N 51°54' E 004°16'4 8.7
2018-Apr-16 23:31N 51°57' E 004°10'4 8.5
2018-Apr-16 23:01N 51°59' E 004°04'5 9.4
2018-Apr-16 22:31N 51°60' E 003°56'5 9.6
2018-Apr-16 22:01N 51°59' E 003°49'4 8.9
2018-Apr-16 21:31N 51°58' E 003°41'5 9.2
2018-Apr-16 21:00N 51°57' E 003°34'4 9.0
2018-Apr-16 20:31N 51°56' E 003°27'4 9.0
2018-Apr-16 20:01N 51°55' E 003°20'5 9.0
2018-Apr-16 19:30N 51°53' E 003°13'5 9.3
2018-Apr-16 19:00N 51°52' E 003°06'5 9.5
2018-Apr-16 18:31N 51°51' E 002°59'5 9.8
2018-Apr-16 18:00N 51°50' E 002°51'510.1
2018-Apr-16 17:31N 51°48' E 002°43'510.7
2018-Apr-16 17:01N 51°45' E 002°36'611.2
2018-Apr-16 16:31N 51°41' E 002°31'611.5
2018-Apr-16 16:00N 51°36' E 002°25'712.4
2018-Apr-16 15:29N 51°31' E 002°18'612.5
2018-Apr-16 15:01N 51°26' E 002°13'612.7
2018-Apr-16 14:30N 51°20' E 002°09'713.0
2018-Apr-16 14:00N 51°15' E 002°03'713.3
2018-Apr-16 13:30N 51°10' E 001°55'713.7
2018-Apr-16 13:00N 51°07' E 001°46'714.4
2018-Apr-16 12:30N 51°02' E 001°38'1014.7
2018-Apr-16 11:49N 50°54' E 001°27'6012.2
2018-Apr-16 06:53N 50°21' E 000°07'411.9
2018-Apr-16 06:30N 50°19' E 000°01'611.2
2018-Apr-16 05:59N 50°17' W 000°08'510.7
2018-Apr-16 05:30N 50°16' W 000°15'510.2
2018-Apr-16 05:00N 50°14' W 000°23'5 9.7
2018-Apr-16 04:28N 50°13' W 000°31'5 9.2
2018-Apr-16 03:54N 50°12' W 000°39'4 8.7
2018-Apr-16 03:26N 50°11' W 000°45'4 8.2
2018-Apr-16 02:59N 50°10' W 000°50'4 7.9
2018-Apr-16 02:30N 50°09' W 000°56'4 7.7
2018-Apr-16 02:00N 50°08' W 001°02'4 7.5
2018-Apr-16 01:30N 50°07' W 001°08'4 7.7
2018-Apr-16 01:00N 50°06' W 001°13'4 8.3
2018-Apr-16 00:30N 50°05' W 001°20'4 8.8
2018-Apr-16 00:00N 50°04' W 001°26'5 9.6
2018-Apr-15 23:30N 50°02' W 001°33'510.5
2018-Apr-15 23:00N 50°01' W 001°41'611.3
2018-Apr-15 22:30N 49°59' W 001°50'612.0
2018-Apr-15 22:00N 49°58' W 001°59'612.7
2018-Apr-15 21:30N 49°56' W 002°08'13011.7
2018-Apr-15 10:25N 48°58' W 005°07'4 8.7
2018-Apr-15 10:00N 48°56' W 005°12'7 8.8
2018-Apr-15 09:15N 48°52' W 005°20'3 9.0
2018-Apr-15 08:56N 48°51' W 005°24'  
Track history (hours):
 
Tides and Currents Weather Stations Pressure Air Temp Water Temp Dewpoint Dewpoint Depression Visibility Wind Speed Wind Dir Waves Ship Positions

Beautrophy

Last reported at 2018-Apr-24 01:37 UTC. Time now 2018-Apr-24 03:07 UTC.
Position N 50°21' W 004°38'.

Length 118 m; draft 4.8 m.

Type: Cargo ship. MMSI: 245916000.

Date/timePositionNaut miles runAvg speedWind from/ knotsBaromVisibWave heightAir tempDewpointWater temp
2018-Apr-24 01:37N 50°21' W 004°38'0 0.0
2018-Apr-24 01:25N 50°21' W 004°38'0 0.0
2018-Apr-24 00:55N 50°21' W 004°38'0 0.0
2018-Apr-24 00:25N 50°21' W 004°38'0 0.0
2018-Apr-23 23:49N 50°21' W 004°38'0 0.0
2018-Apr-23 22:43N 50°21' W 004°38'0 0.0
2018-Apr-23 22:28N 50°21' W 004°38'0 0.0
2018-Apr-23 21:37N 50°21' W 004°38'0 0.0
2018-Apr-23 21:25N 50°21' W 004°38'0 0.0
2018-Apr-23 20:55N 50°21' W 004°38'0 0.0
2018-Apr-23 05:58N 50°21' W 004°38'0 0.0
2018-Apr-23 05:07N 50°21' W 004°38'0 0.0
2018-Apr-23 04:49N 50°21' W 004°38'0 0.0
2018-Apr-23 01:31N 50°21' W 004°38'0 0.0
2018-Apr-22 08:37N 50°21' W 004°38'0 0.0
2018-Apr-22 08:07N 50°21' W 004°38'0 0.0
2018-Apr-22 07:58N 50°21' W 004°38'0 0.0
2018-Apr-22 05:46N 50°21' W 004°38'0 0.0
2018-Apr-22 05:13N 50°21' W 004°38'0 0.0
2018-Apr-22 04:55N 50°21' W 004°38'0 0.0
2018-Apr-22 03:37N 50°21' W 004°38'0 0.0
2018-Apr-22 03:19N 50°21' W 004°38'0 0.0
2018-Apr-22 02:49N 50°21' W 004°38'0 0.0
2018-Apr-22 02:19N 50°21' W 004°38'0 0.0
2018-Apr-22 01:58N 50°21' W 004°38'0 0.0
2018-Apr-22 01:28N 50°21' W 004°38'0 0.0
2018-Apr-21 22:49N 50°21' W 004°38'0 0.0
2018-Apr-21 22:22N 50°21' W 004°38'0 0.0
2018-Apr-21 21:55N 50°21' W 004°38'0 0.0
2018-Apr-21 21:28N 50°21' W 004°38'0 0.0
2018-Apr-21 20:46N 50°21' W 004°38'0 0.0
2018-Apr-21 20:22N 50°21' W 004°38'1 0.0
2018-Apr-21 08:21N 50°20' W 004°38'2 3.7
2018-Apr-21 07:56N 50°19' W 004°39'2 4.1
2018-Apr-21 07:30N 50°17' W 004°37'3 6.3
2018-Apr-21 07:00N 50°17' W 004°32'3 6.8
2018-Apr-21 06:30N 50°16' W 004°27'4 7.0
2018-Apr-21 06:00N 50°15' W 004°22'4 7.3
2018-Apr-21 05:30N 50°14' W 004°17'4 7.4
2018-Apr-21 05:00N 50°13' W 004°11'4 7.4
2018-Apr-21 04:30N 50°12' W 004°06'4 7.1
2018-Apr-21 04:00N 50°11' W 004°00'4 7.3
2018-Apr-21 03:30N 50°09' W 003°55'4 7.6
2018-Apr-21 03:00N 50°08' W 003°50'4 7.7
2018-Apr-21 02:30N 50°07' W 003°44'4 7.3
2018-Apr-21 02:00N 50°06' W 003°38'4 7.8
2018-Apr-21 01:30N 50°05' W 003°32'4 8.1
2018-Apr-21 01:00N 50°05' W 003°26'4 7.9
2018-Apr-21 00:30N 50°04' W 003°20'4 7.7
2018-Apr-21 00:00N 50°03' W 003°14'4 8.2
2018-Apr-20 23:30N 50°02' W 003°08'510.0
2018-Apr-20 23:00N 50°01' W 003°00'5 9.5
2018-Apr-20 22:30N 50°01' W 002°53'4 8.8
2018-Apr-20 22:00N 50°02' W 002°46'5 9.7
2018-Apr-20 21:30N 50°04' W 002°39'5 9.9
2018-Apr-20 21:00N 50°05' W 002°31'510.4
2018-Apr-20 20:30N 50°06' W 002°23'510.9
2018-Apr-20 20:00N 50°07' W 002°15'611.4
2018-Apr-20 19:30N 50°09' W 002°07'612.7
2018-Apr-20 19:00N 50°11' W 001°58'713.6
2018-Apr-20 18:30N 50°13' W 001°47'714.2
2018-Apr-20 18:00N 50°15' W 001°37'714.5
2018-Apr-20 17:31N 50°17' W 001°26'714.8
2018-Apr-20 17:00N 50°18' W 001°14'815.1
2018-Apr-20 16:31N 50°20' W 001°03'715.0
2018-Apr-20 16:00N 50°22' W 000°52'713.5
2018-Apr-20 15:30N 50°24' W 000°41'612.8
2018-Apr-20 15:00N 50°26' W 000°32'612.3
2018-Apr-20 14:30N 50°28' W 000°22'611.6
2018-Apr-20 14:00N 50°29' W 000°14'511.0
2018-Apr-20 13:30N 50°31' W 000°05'510.3
2018-Apr-20 13:00N 50°32' E 000°03'5 9.8
2018-Apr-20 12:30N 50°33' E 000°10'5 9.4
2018-Apr-20 12:01N 50°34' E 000°17'5 9.2
2018-Apr-20 11:30N 50°35' E 000°24'4 8.2
2018-Apr-20 11:00N 50°36' E 000°30'4 8.0
2018-Apr-20 10:30N 50°38' E 000°36'4 8.9
2018-Apr-20 10:00N 50°41' E 000°42'5 9.7
2018-Apr-20 09:30N 50°44' E 000°48'510.5
2018-Apr-20 09:00N 50°47' E 000°54'510.9
2018-Apr-20 08:30N 50°50' E 001°01'611.0
2018-Apr-20 08:00N 50°54' E 001°08'510.9
2018-Apr-20 07:30N 50°57' E 001°14'611.4
2018-Apr-20 07:00N 51°01' E 001°21'611.0
2018-Apr-20 06:30N 51°04' E 001°28'510.8
2018-Apr-20 06:00N 51°08' E 001°34'510.4
2018-Apr-20 05:30N 51°11' E 001°41'510.0
2018-Apr-20 05:00N 51°15' E 001°46'510.0
2018-Apr-20 04:30N 51°20' E 001°50'5 9.8
2018-Apr-20 04:00N 51°24' E 001°54'5 9.9
2018-Apr-20 03:31N 51°28' E 001°58'510.3
2018-Apr-20 03:00N 51°31' E 002°04'510.5
2018-Apr-20 02:30N 51°35' E 002°10'510.6
2018-Apr-20 02:01N 51°39' E 002°16'510.8
2018-Apr-20 01:31N 51°43' E 002°22'510.8
2018-Apr-20 01:00N 51°47' E 002°28'510.8
2018-Apr-20 00:30N 51°50' E 002°35'511.0
2018-Apr-20 00:00N 51°54' E 002°41'610.8
2018-Apr-19 23:29N 51°59' E 002°47'2212.7
2018-Apr-19 21:45N 52°04' E 003°22'312.8
2018-Apr-19 21:29N 52°04' E 003°27'612.6
2018-Apr-19 21:00N 52°04' E 003°37'612.5
2018-Apr-19 20:30N 52°03' E 003°47'510.6
2018-Apr-19 20:00N 52°02' E 003°55'612.9
2018-Apr-19 19:30N 51°59' E 004°05'612.8
2018-Apr-19 19:00N 51°55' E 004°14'510.8
2018-Apr-19 18:30N 51°54' E 004°22'3 5.8
2018-Apr-19 18:00N 51°54' E 004°27'0 0.0
2018-Apr-19 17:30N 51°54' E 004°27'0 0.0
2018-Apr-19 17:00N 51°54' E 004°27'0 0.0
2018-Apr-19 16:30N 51°54' E 004°27'0 0.0
2018-Apr-19 16:00N 51°54' E 004°27'0 0.0
2018-Apr-19 15:30N 51°53' E 004°27'0 0.0
2018-Apr-19 15:00N 51°54' E 004°27'0 0.0
2018-Apr-19 14:30N 51°54' E 004°27'0 0.0
2018-Apr-19 14:00N 51°54' E 004°27'0 0.0
2018-Apr-19 13:30N 51°54' E 004°27'0 0.0
2018-Apr-19 13:00N 51°54' E 004°27'0 0.0
2018-Apr-19 12:30N 51°54' E 004°27'0 0.0
2018-Apr-19 12:00N 51°54' E 004°27'0 0.0
2018-Apr-19 11:30N 51°54' E 004°27'0 0.0
2018-Apr-19 11:00N 51°54' E 004°27'0 0.0
2018-Apr-19 10:30N 51°54' E 004°27'0 0.0
2018-Apr-19 10:00N 51°54' E 004°27'0 0.0
2018-Apr-19 09:30N 51°54' E 004°27'0 0.0
2018-Apr-19 09:00N 51°53' E 004°27'0 0.0
2018-Apr-19 08:30N 51°54' E 004°27'0 0.0
2018-Apr-19 08:00N 51°54' E 004°27'0 0.0
2018-Apr-19 07:30N 51°54' E 004°27'0 0.0
2018-Apr-19 07:00N 51°54' E 004°27'0 0.0
2018-Apr-19 06:30N 51°54' E 004°27'0 0.0
2018-Apr-19 06:00N 51°54' E 004°27'0 0.0
2018-Apr-19 05:30N 51°54' E 004°27'0 0.0
2018-Apr-19 05:00N 51°54' E 004°27'0 0.0
2018-Apr-19 04:30N 51°54' E 004°27'0 0.0
2018-Apr-19 04:00N 51°54' E 004°27'0 0.0
2018-Apr-19 03:30N 51°54' E 004°27'0 0.0
2018-Apr-19 03:00N 51°54' E 004°27'0 0.0
2018-Apr-19 02:30N 51°54' E 004°27'0 0.0
2018-Apr-19 02:00N 51°54' E 004°27'0 0.0
2018-Apr-19 01:30N 51°54' E 004°27'0 0.0
2018-Apr-19 01:00N 51°54' E 004°27'0 0.0
2018-Apr-19 00:30N 51°54' E 004°27'0 0.0
2018-Apr-19 00:00N 51°54' E 004°27'0 0.0
2018-Apr-18 23:30N 51°54' E 004°27'0 0.0
2018-Apr-18 23:00N 51°54' E 004°27'0 0.0
2018-Apr-18 22:30N 51°54' E 004°27'0 0.0
2018-Apr-18 22:00N 51°54' E 004°27'0 0.0
2018-Apr-18 21:30N 51°54' E 004°27'0 0.0
2018-Apr-18 21:00N 51°54' E 004°27'0 0.0
2018-Apr-18 20:30N 51°54' E 004°27'0 0.0
2018-Apr-18 20:00N 51°54' E 004°27'0 0.0
2018-Apr-18 19:30N 51°54' E 004°27'0 0.0
2018-Apr-18 19:00N 51°54' E 004°27'0 0.0
2018-Apr-18 18:30N 51°54' E 004°27'0 0.0
2018-Apr-18 18:00N 51°54' E 004°27'0 0.0
2018-Apr-18 17:30N 51°54' E 004°27'0 0.0
2018-Apr-18 17:00N 51°54' E 004°27'0 0.0
2018-Apr-18 16:30N 51°54' E 004°27'0 0.0
2018-Apr-18 16:00N 51°54' E 004°27'0 0.0
2018-Apr-18 15:30N 51°53' E 004°27'0 0.0
2018-Apr-18 14:57N 51°54' E 004°27'0 0.0
2018-Apr-18 14:30N 51°54' E 004°27'0 0.0
2018-Apr-18 14:00N 51°54' E 004°27'0 0.0
2018-Apr-18 13:30N 51°54' E 004°27'0 0.0
2018-Apr-18 13:00N 51°54' E 004°27'0 0.0
2018-Apr-18 12:30N 51°54' E 004°27'0 0.0
2018-Apr-18 12:00N 51°54' E 004°27'0 0.0
2018-Apr-18 11:30N 51°54' E 004°27'0 0.0
2018-Apr-18 11:00N 51°54' E 004°27'0 0.0
2018-Apr-18 10:30N 51°54' E 004°27'0 0.0
2018-Apr-18 10:00N 51°54' E 004°27'0 0.0
2018-Apr-18 09:30N 51°54' E 004°27'0 0.0
2018-Apr-18 09:00N 51°54' E 004°27'0 0.0
2018-Apr-18 08:30N 51°54' E 004°27'0 0.0
2018-Apr-18 08:00N 51°54' E 004°27'0 0.0
2018-Apr-18 07:30N 51°54' E 004°27'0 0.0
2018-Apr-18 07:00N 51°54' E 004°27'0 0.0
2018-Apr-18 06:30N 51°54' E 004°27'0 0.0
2018-Apr-18 06:00N 51°54' E 004°27'0 0.1
2018-Apr-18 05:30N 51°54' E 004°27'0 0.0
2018-Apr-18 05:00N 51°53' E 004°27'0 0.0
2018-Apr-18 04:30N 51°54' E 004°27'0 0.0
2018-Apr-18 04:00N 51°54' E 004°27'0 0.0
2018-Apr-18 03:30N 51°54' E 004°27'0 0.0
2018-Apr-18 03:00N 51°54' E 004°27'0 0.0
2018-Apr-18 02:30N 51°54' E 004°27'0 0.0
2018-Apr-18 02:00N 51°54' E 004°27'0 0.0
2018-Apr-18 01:30N 51°54' E 004°27'0 0.0
2018-Apr-18 01:00N 51°54' E 004°27'0 0.0
2018-Apr-18 00:30N 51°54' E 004°27'0 0.0
2018-Apr-18 00:00N 51°54' E 004°27'0 0.0
2018-Apr-17 23:30N 51°54' E 004°27'0 0.0
2018-Apr-17 23:00N 51°54' E 004°27'0 0.0
2018-Apr-17 22:30N 51°54' E 004°27'0 0.0
2018-Apr-17 22:00N 51°54' E 004°27'0 0.0
2018-Apr-17 21:30N 51°54' E 004°27'0 0.0
2018-Apr-17 21:00N 51°54' E 004°27'0 0.0
2018-Apr-17 20:30N 51°54' E 004°27'0 0.0
2018-Apr-17 20:00N 51°54' E 004°27'0 0.0
2018-Apr-17 19:30N 51°54' E 004°27'0 0.0
2018-Apr-17 19:00N 51°54' E 004°27'0 0.0
2018-Apr-17 18:30N 51°54' E 004°27'0 0.0
2018-Apr-17 18:00N 51°54' E 004°27'0 0.0
2018-Apr-17 17:30N 51°54' E 004°27'0 0.0
2018-Apr-17 17:00N 51°54' E 004°27'0 0.0
2018-Apr-17 16:30N 51°54' E 004°27'0 0.0
2018-Apr-17 16:00N 51°54' E 004°27'0 0.0
2018-Apr-17 15:30N 51°54' E 004°27'0 0.0
2018-Apr-17 15:00N 51°54' E 004°27'0 0.0
2018-Apr-17 14:30N 51°54' E 004°27'0 0.0
2018-Apr-17 14:00N 51°54' E 004°27'0 0.0
2018-Apr-17 13:30N 51°54' E 004°27'0 0.0
2018-Apr-17 13:00N 51°54' E 004°27'0 0.0
2018-Apr-17 12:30N 51°54' E 004°27'0 0.0
2018-Apr-17 12:00N 51°54' E 004°27'0 0.0
2018-Apr-17 11:30N 51°54' E 004°27'0 0.0
2018-Apr-17 11:00N 51°54' E 004°27'0 0.0
2018-Apr-17 10:30N 51°54' E 004°27'0 0.0
2018-Apr-17 09:57N 51°54' E 004°27'0 0.0
2018-Apr-17 09:30N 51°54' E 004°27'0 0.0
2018-Apr-17 09:00N 51°54' E 004°27'0 0.0
2018-Apr-17 08:30N 51°54' E 004°27'0 0.0
2018-Apr-17 08:00N 51°54' E 004°27'0 0.0
2018-Apr-17 07:30N 51°54' E 004°27'0 0.0
2018-Apr-17 07:00N 51°54' E 004°27'0 0.0
2018-Apr-17 06:30N 51°54' E 004°27'0 0.0
2018-Apr-17 06:00N 51°54' E 004°27'0 0.0
2018-Apr-17 05:30N 51°54' E 004°27'0 0.0
2018-Apr-17 05:00N 51°54' E 004°27'0 0.0
2018-Apr-17 04:30N 51°54' E 004°27'0 0.0
2018-Apr-17 04:00N 51°54' E 004°27'0 0.0
2018-Apr-17 03:30N 51°54' E 004°27'0 0.0
2018-Apr-17 03:00N 51°54' E 004°27'0 0.0
2018-Apr-17 02:30N 51°54' E 004°27'0 0.0
2018-Apr-17 02:00N 51°54' E 004°27'0 0.0
2018-Apr-17 01:30N 51°54' E 004°27'0 0.2
2018-Apr-17 01:01N 51°54' E 004°27'2 4.7
2018-Apr-17 00:31N 51°54' E 004°23'5 9.1
2018-Apr-17 00:00N 51°54' E 004°16'4 8.7
2018-Apr-16 23:31N 51°57' E 004°10'4 8.5
2018-Apr-16 23:01N 51°59' E 004°04'5 9.4
2018-Apr-16 22:31N 51°60' E 003°56'5 9.6
2018-Apr-16 22:01N 51°59' E 003°49'4 8.9
2018-Apr-16 21:31N 51°58' E 003°41'5 9.2
2018-Apr-16 21:00N 51°57' E 003°34'4 9.0
2018-Apr-16 20:31N 51°56' E 003°27'4 9.0
2018-Apr-16 20:01N 51°55' E 003°20'5 9.0
2018-Apr-16 19:30N 51°53' E 003°13'5 9.3
2018-Apr-16 19:00N 51°52' E 003°06'5 9.5
2018-Apr-16 18:31N 51°51' E 002°59'5 9.8
2018-Apr-16 18:00N 51°50' E 002°51'510.1
2018-Apr-16 17:31N 51°48' E 002°43'510.7
2018-Apr-16 17:01N 51°45' E 002°36'611.2
2018-Apr-16 16:31N 51°41' E 002°31'611.5
2018-Apr-16 16:00N 51°36' E 002°25'712.4
2018-Apr-16 15:29N 51°31' E 002°18'612.5
2018-Apr-16 15:01N 51°26' E 002°13'612.7
2018-Apr-16 14:30N 51°20' E 002°09'713.0
2018-Apr-16 14:00N 51°15' E 002°03'713.3
2018-Apr-16 13:30N 51°10' E 001°55'713.7
2018-Apr-16 13:00N 51°07' E 001°46'714.4
2018-Apr-16 12:30N 51°02' E 001°38'1014.7
2018-Apr-16 11:49N 50°54' E 001°27'6012.2
2018-Apr-16 06:53N 50°21' E 000°07'411.9
2018-Apr-16 06:30N 50°19' E 000°01'611.2
2018-Apr-16 05:59N 50°17' W 000°08'510.7
2018-Apr-16 05:30N 50°16' W 000°15'510.2
2018-Apr-16 05:00N 50°14' W 000°23'5 9.7
2018-Apr-16 04:28N 50°13' W 000°31'5 9.2
2018-Apr-16 03:54N 50°12' W 000°39'4 8.7
2018-Apr-16 03:26N 50°11' W 000°45'4 8.2
2018-Apr-16 02:59N 50°10' W 000°50'4 7.9
2018-Apr-16 02:30N 50°09' W 000°56'4 7.7
2018-Apr-16 02:00N 50°08' W 001°02'4 7.5
2018-Apr-16 01:30N 50°07' W 001°08'4 7.7
2018-Apr-16 01:00N 50°06' W 001°13'4 8.3
2018-Apr-16 00:30N 50°05' W 001°20'4 8.8
2018-Apr-16 00:00N 50°04' W 001°26'5 9.6
2018-Apr-15 23:30N 50°02' W 001°33'510.5
2018-Apr-15 23:00N 50°01' W 001°41'611.3
2018-Apr-15 22:30N 49°59' W 001°50'612.0
2018-Apr-15 22:00N 49°58' W 001°59'612.7
2018-Apr-15 21:30N 49°56' W 002°08'13011.7
2018-Apr-15 10:25N 48°58' W 005°07'4 8.7
2018-Apr-15 10:00N 48°56' W 005°12'7 8.8
2018-Apr-15 09:15N 48°52' W 005°20'3 9.0
2018-Apr-15 08:56N 48°51' W 005°24'  

Dump ship's entire track history